Time;durP1;ratioP1;P1;durP2;ratioP2;P2;SDS_P1;SDS_P2;PMS_P1;PMS_P2;Temp;Humidity;BMP_temperature;BMP_pressure;BME280_temperature;BME280_humidity;BME280_pressure;Samples;Min_cycle;Max_cycle;Signal;HPM_P1;HPM_P2
2022/06/04 00:01:52;;;;;;;38.10;35.20;;;18.20;99.90;;;;;;6032035;23;20496;-86
2022/06/04 00:04:19;;;;;;;37.60;34.70;;;18.30;99.90;;;;;;6030494;23;20449;-86
2022/06/04 00:06:48;;;;;;;38.30;35.40;;;18.30;99.90;;;;;;6032238;23;20433;-86
2022/06/04 00:09:15;;;;;;;35.90;33.20;;;18.30;99.90;;;;;;6009493;23;20523;-86
2022/06/04 00:17:23;;;;;;;34.50;32.00;;;18.20;99.90;;;;;;6018472;23;20524;-86
2022/06/04 00:19:50;;;;;;;36.93;34.13;;;18.20;99.90;;;;;;6017336;23;20447;-86
2022/06/04 00:22:19;;;;;;;35.83;33.10;;;18.30;99.90;;;;;;6017085;23;20460;-85
2022/06/04 00:24:46;;;;;;;34.00;31.53;;;18.30;99.90;;;;;;6007967;23;20464;-86
2022/06/04 00:27:15;;;;;;;34.33;31.73;;;18.30;99.90;;;;;;6020850;23;20490;-86
2022/06/04 00:29:44;;;;;;;36.87;33.97;;;18.30;99.90;;;;;;6024950;23;20515;-86
2022/06/04 00:32:11;;;;;;;34.73;32.00;;;18.20;99.90;;;;;;6021562;23;20472;-86
2022/06/04 00:34:40;;;;;;;34.00;31.50;;;18.20;99.90;;;;;;6020883;23;20436;-85
2022/06/04 00:37:07;;;;;;;35.80;33.17;;;18.10;99.90;;;;;;6020936;23;20793;-85
2022/06/04 00:39:34;;;;;;;33.80;31.30;;;18.10;99.90;;;;;;6018214;23;20462;-85
2022/06/04 00:42:07;;;;;;;33.87;31.27;;;18.00;99.90;;;;;;6015743;23;20500;-86
2022/06/04 00:45:08;;;;;;;32.37;30.00;;;17.90;99.90;;;;;;6019398;23;20441;-86
2022/06/04 00:47:37;;;;;;;31.67;29.37;;;17.90;99.90;;;;;;6013951;23;20451;-86
2022/06/04 00:50:06;;;;;;;33.83;31.23;;;17.80;99.90;;;;;;6012162;23;20472;-85
2022/06/04 00:52:34;;;;;;;33.53;31.03;;;17.90;99.90;;;;;;6008127;23;20479;-86
2022/06/04 00:55:01;;;;;;;32.93;30.60;;;17.80;99.90;;;;;;6011328;23;20441;-85
2022/06/04 00:57:51;;;;;;;34.17;31.80;;;17.80;99.90;;;;;;6010769;23;20444;-85
2022/06/04 01:00:22;;;;;;;36.03;33.23;;;17.90;99.90;;;;;;6007190;23;20484;-85
2022/06/04 01:03:21;;;;;;;37.27;34.47;;;17.90;99.90;;;;;;6006513;23;20929;-86
2022/06/04 01:06:12;;;;;;;38.17;35.23;;;17.80;99.90;;;;;;6006953;23;20446;-85
2022/06/04 01:08:58;;;;;;;36.00;33.33;;;17.80;99.90;;;;;;6027317;23;20443;-85
2022/06/04 01:12:09;;;;;;;35.90;33.10;;;17.70;99.90;;;;;;6014834;23;20556;-86
2022/06/04 01:14:41;;;;;;;37.67;34.77;;;17.60;99.90;;;;;;6021039;23;20527;-85
2022/06/04 01:17:19;;;;;;;37.80;34.90;;;17.50;99.90;;;;;;6036705;23;20467;-86
2022/06/04 01:19:57;;;;;;;35.40;32.53;;;17.50;99.90;;;;;;6032089;23;20436;-86
2022/06/04 01:22:46;;;;;;;38.73;35.73;;;17.50;99.90;;;;;;6032632;23;20472;-85
2022/06/04 01:25:28;;;;;;;35.10;32.40;;;17.50;99.90;;;;;;6022301;23;20497;-85
2022/06/04 01:28:00;;;;;;;36.00;33.23;;;17.50;99.90;;;;;;6026385;23;20444;-86
2022/06/04 01:30:34;;;;;;;37.33;34.43;;;17.50;99.90;;;;;;6022742;23;20449;-85
2022/06/04 01:33:07;;;;;;;37.30;34.53;;;17.60;99.90;;;;;;6030710;23;20520;-85
2022/06/04 01:35:40;;;;;;;36.17;33.37;;;17.50;99.90;;;;;;6034953;23;20466;-85
2022/06/04 01:38:22;;;;;;;37.20;34.20;;;17.50;99.90;;;;;;6045743;23;20425;-85
2022/06/04 01:41:04;;;;;;;37.80;35.00;;;17.50;99.90;;;;;;6034508;23;20425;-85
2022/06/04 01:43:36;;;;;;;35.20;32.50;;;17.50;99.90;;;;;;6027224;23;20451;-85
2022/06/04 01:46:11;;;;;;;36.13;33.53;;;17.50;99.90;;;;;;6029170;23;20524;-85
2022/06/04 01:48:43;;;;;;;37.50;34.50;;;17.50;99.90;;;;;;6038823;23;20440;-86
2022/06/04 01:51:17;;;;;;;43.47;40.10;;;17.50;99.90;;;;;;6040737;23;20464;-86
2022/06/04 01:53:45;;;;;;;39.37;36.27;;;17.40;99.90;;;;;;6026923;23;20441;-86
2022/06/04 01:56:29;;;;;;;39.50;36.50;;;17.20;99.90;;;;;;6019060;23;20450;-86
2022/06/04 01:59:02;;;;;;;38.23;35.33;;;17.10;99.90;;;;;;6021148;23;20808;-85
2022/06/04 02:01:33;;;;;;;40.27;36.97;;;17.00;99.90;;;;;;6022937;23;20537;-85
2022/06/04 02:04:05;;;;;;;36.93;34.13;;;16.90;99.90;;;;;;6015917;23;20446;-85
2022/06/04 02:06:39;;;;;;;41.03;37.83;;;16.80;99.90;;;;;;6015526;23;20550;-85
2022/06/04 02:09:10;;;;;;;38.27;35.40;;;16.70;99.90;;;;;;6013950;23;21062;-86
2022/06/04 02:11:40;;;;;;;43.40;39.80;;;16.60;99.90;;;;;;6016383;23;20583;-86
2022/06/04 02:14:09;;;;;;;36.80;34.00;;;16.50;99.90;;;;;;6015422;23;21240;-86
2022/06/04 02:16:41;;;;;;;36.70;33.93;;;16.40;99.90;;;;;;6009725;23;20939;-86
2022/06/04 02:19:09;;;;;;;38.87;35.87;;;16.40;99.90;;;;;;6009495;23;20443;-85
2022/06/04 02:21:36;;;;;;;40.77;37.37;;;16.40;99.90;;;;;;6011751;23;20558;-85
2022/06/04 02:24:05;;;;;;;39.60;36.50;;;16.30;99.90;;;;;;6003233;23;20522;-86
2022/06/04 02:26:34;;;;;;;38.97;35.97;;;16.30;99.90;;;;;;6003951;23;20462;-86
2022/06/04 02:29:02;;;;;;;38.63;35.67;;;16.30;99.90;;;;;;6003622;23;20507;-85
2022/06/04 02:31:35;;;;;;;40.37;37.17;;;16.30;99.90;;;;;;6003214;23;20570;-86
2022/06/04 02:34:11;;;;;;;42.10;38.50;;;16.20;99.90;;;;;;6003310;23;20501;-86
2022/06/04 02:36:44;;;;;;;37.97;34.90;;;16.20;99.90;;;;;;6003010;23;20441;-85
2022/06/04 02:39:16;;;;;;;40.87;37.67;;;16.30;99.90;;;;;;6017702;23;20440;-84
2022/06/04 02:41:47;;;;;;;41.10;37.70;;;16.20;99.90;;;;;;6016457;23;20487;-85
2022/06/04 02:44:21;;;;;;;37.07;34.07;;;16.30;99.90;;;;;;6009291;23;20504;-86
2022/06/04 02:46:57;;;;;;;40.47;37.37;;;16.30;99.90;;;;;;6001965;23;20985;-85
2022/06/04 02:49:30;;;;;;;37.50;34.47;;;16.30;99.90;;;;;;6003849;23;20434;-86
2022/06/04 02:51:58;;;;;;;38.50;35.47;;;16.40;99.90;;;;;;6002487;23;20479;-85
2022/06/04 02:54:30;;;;;;;37.27;34.30;;;16.40;99.90;;;;;;6002095;23;20468;-86
2022/06/04 02:56:59;;;;;;;36.27;33.47;;;16.40;99.90;;;;;;6018903;23;20440;-86
2022/06/04 02:59:28;;;;;;;35.10;32.50;;;16.50;99.90;;;;;;6005235;23;20532;-86
2022/06/04 03:02:00;;;;;;;33.27;30.67;;;16.50;99.90;;;;;;6003870;23;20463;-81
2022/06/04 03:04:28;;;;;;;34.43;31.83;;;16.50;99.90;;;;;;5986150;23;20996;-81
2022/06/04 03:07:04;;;;;;;28.60;26.57;;;16.60;99.90;;;;;;6000885;23;20525;-81
2022/06/04 03:09:31;;;;;;;28.60;26.50;;;16.60;99.90;;;;;;6004709;23;20447;-80
2022/06/04 03:11:58;;;;;;;28.10;25.87;;;16.60;99.90;;;;;;6003163;23;20512;-81
2022/06/04 03:14:25;;;;;;;31.40;29.00;;;16.60;99.90;;;;;;6004389;23;20452;-81
2022/06/04 03:16:52;;;;;;;29.17;26.90;;;16.70;99.90;;;;;;6010290;23;20519;-79
2022/06/04 03:19:21;;;;;;;28.40;26.20;;;16.70;99.90;;;;;;6003728;23;20982;-81
2022/06/04 03:21:48;;;;;;;25.50;23.60;;;16.80;99.90;;;;;;6001672;23;20472;-81
2022/06/04 03:24:15;;;;;;;25.43;23.33;;;16.80;99.90;;;;;;5999792;23;20444;-81
2022/06/04 03:26:43;;;;;;;25.80;23.87;;;16.80;99.90;;;;;;5997797;23;20443;-81
2022/06/04 03:29:10;;;;;;;26.47;24.47;;;16.90;99.90;;;;;;6000485;23;20440;-81
2022/06/04 03:31:38;;;;;;;26.37;24.40;;;16.90;99.90;;;;;;6004913;23;20556;-81
2022/06/04 03:34:05;;;;;;;25.73;23.70;;;17.00;99.90;;;;;;6008773;23;20473;-82
2022/06/04 03:36:34;;;;;;;26.30;24.17;;;17.00;99.90;;;;;;5998581;23;20432;-82
2022/06/04 03:39:02;;;;;;;23.50;21.80;;;16.90;99.90;;;;;;6012672;23;20441;-82
2022/06/04 03:41:29;;;;;;;26.23;24.33;;;16.90;99.90;;;;;;6021953;23;20471;-78
2022/06/04 03:43:56;;;;;;;25.00;23.20;;;16.90;99.90;;;;;;6010581;23;20479;-84
2022/06/04 03:46:24;;;;;;;25.40;23.40;;;16.90;99.90;;;;;;6009669;23;20448;-84
2022/06/04 03:48:51;;;;;;;25.70;23.80;;;16.90;99.90;;;;;;6008639;23;20480;-79
2022/06/04 03:51:19;;;;;;;28.23;25.90;;;16.90;99.90;;;;;;6002897;23;21006;-88
2022/06/04 03:53:47;;;;;;;24.67;22.87;;;16.80;99.90;;;;;;6009663;23;21013;-87
2022/06/04 03:56:14;;;;;;;22.93;21.30;;;16.80;99.90;;;;;;6015550;23;20444;-87
2022/06/04 03:58:41;;;;;;;24.10;22.30;;;16.70;99.90;;;;;;5996846;23;20830;-87
2022/06/04 04:01:16;;;;;;;23.67;22.00;;;16.60;99.90;;;;;;6052400;23;20466;-86
2022/06/04 04:03:44;;;;;;;27.50;25.40;;;16.60;99.90;;;;;;6059391;23;20443;-86
2022/06/04 04:06:15;;;;;;;25.93;24.03;;;16.50;99.90;;;;;;6054127;23;20995;-86
2022/06/04 04:08:48;;;;;;;27.80;25.80;;;16.40;99.90;;;;;;6038192;23;20456;-86
2022/06/04 04:11:21;;;;;;;26.60;24.37;;;16.30;99.90;;;;;;6048300;23;20464;-86
2022/06/04 04:13:51;;;;;;;28.77;26.67;;;16.20;99.90;;;;;;6040837;23;20507;-87
2022/06/04 04:16:19;;;;;;;26.33;24.53;;;16.20;99.90;;;;;;6035522;23;20433;-87
2022/06/04 04:18:46;;;;;;;23.20;21.50;;;16.20;99.90;;;;;;6034724;23;20503;-88
2022/06/04 04:21:15;;;;;;;22.50;20.87;;;16.20;99.90;;;;;;6034659;23;20470;-87
2022/06/04 04:23:44;;;;;;;22.50;20.90;;;16.30;99.90;;;;;;6034630;23;20496;-87
2022/06/04 04:26:13;;;;;;;21.60;20.00;;;16.30;99.90;;;;;;6036236;23;20469;-86
2022/06/04 04:28:42;;;;;;;22.97;21.27;;;16.30;99.90;;;;;;6035118;23;20468;-87
2022/06/04 04:31:14;;;;;;;19.13;17.63;;;16.30;99.90;;;;;;6035832;23;20556;-87
2022/06/04 04:33:40;;;;;;;21.53;20.00;;;16.30;99.90;;;;;;6035675;23;20441;-86
2022/06/04 04:36:08;;;;;;;21.90;20.17;;;16.30;99.90;;;;;;6035658;23;20757;-87
2022/06/04 04:38:36;;;;;;;19.50;17.90;;;16.30;99.90;;;;;;6035789;23;20442;-87
2022/06/04 04:41:04;;;;;;;18.17;16.77;;;16.30;99.90;;;;;;6038849;23;20472;-86
2022/06/04 04:43:31;;;;;;;16.80;15.50;;;16.40;99.90;;;;;;6036325;23;20473;-86
2022/06/04 04:46:03;;;;;;;16.10;14.77;;;16.40;99.90;;;;;;6033987;23;20440;-86
2022/06/04 04:48:30;;;;;;;16.10;14.67;;;16.50;99.90;;;;;;6034118;23;20443;-87
2022/06/04 04:50:57;;;;;;;15.37;14.27;;;16.60;99.90;;;;;;6008843;23;20483;-86
2022/06/04 04:53:24;;;;;;;14.90;13.90;;;16.70;99.90;;;;;;6034328;23;20572;-86
2022/06/04 04:55:51;;;;;;;14.07;13.07;;;16.80;99.90;;;;;;6033470;23;20440;-87
2022/06/04 04:58:19;;;;;;;14.30;13.30;;;17.00;99.90;;;;;;6033923;23;20441;-86
2022/06/04 05:00:46;;;;;;;14.37;13.43;;;17.10;99.90;;;;;;6036257;23;20526;-87
2022/06/04 05:03:14;;;;;;;14.60;13.60;;;17.30;99.90;;;;;;6035286;23;20471;-86
2022/06/04 05:05:41;;;;;;;14.67;13.67;;;17.40;99.90;;;;;;6035144;23;20451;-86
2022/06/04 05:08:08;;;;;;;15.17;14.00;;;17.50;99.90;;;;;;6035017;23;20952;-86
2022/06/04 05:10:35;;;;;;;13.20;12.23;;;17.60;99.90;;;;;;6036053;23;20523;-86
2022/06/04 05:13:02;;;;;;;12.57;11.47;;;17.80;99.90;;;;;;6035178;23;20447;-87
2022/06/04 05:15:30;;;;;;;12.50;11.40;;;17.90;99.90;;;;;;6035000;23;20468;-87
2022/06/04 05:17:57;;;;;;;12.40;11.50;;;18.10;99.90;;;;;;6035241;23;20442;-86
2022/06/04 05:20:26;;;;;;;13.13;12.33;;;18.20;99.90;;;;;;6035180;23;20523;-86
2022/06/04 05:22:53;;;;;;;12.73;11.83;;;18.20;99.90;;;;;;6034992;23;20966;-86
2022/06/04 05:25:20;;;;;;;12.27;11.27;;;18.20;99.90;;;;;;6036251;23;20440;-87
2022/06/04 05:27:47;;;;;;;13.80;12.80;;;18.10;99.90;;;;;;6039947;23;20471;-86
2022/06/04 05:30:14;;;;;;;13.13;12.30;;;18.20;99.90;;;;;;6038555;23;20464;-86
2022/06/04 05:32:41;;;;;;;11.60;10.80;;;18.30;99.90;;;;;;6037526;23;20500;-86
2022/06/04 05:35:09;;;;;;;12.70;11.80;;;18.40;99.90;;;;;;6036271;23;20440;-87
2022/06/04 05:37:37;;;;;;;13.00;12.10;;;18.50;99.90;;;;;;6042065;23;20436;-86
2022/06/04 05:40:08;;;;;;;11.83;11.03;;;18.60;99.90;;;;;;6041109;23;20440;-87
2022/06/04 05:42:36;;;;;;;11.77;10.97;;;18.70;99.90;;;;;;6023747;23;20976;-86
2022/06/04 05:45:04;;;;;;;11.37;10.57;;;18.80;99.90;;;;;;6035467;23;20915;-86
2022/06/04 05:47:31;;;;;;;11.90;11.07;;;18.80;99.90;;;;;;6035153;23;20447;-86
2022/06/04 05:50:00;;;;;;;11.07;10.37;;;18.90;99.90;;;;;;6035177;23;20447;-86
2022/06/04 05:52:27;;;;;;;10.60;9.83;;;19.10;99.90;;;;;;6034942;23;20975;-87
2022/06/04 05:54:55;;;;;;;10.50;9.70;;;19.10;99.90;;;;;;6035201;23;20475;-87
2022/06/04 05:57:22;;;;;;;11.07;10.27;;;19.20;99.90;;;;;;6034532;23;20835;-87
2022/06/04 05:59:50;;;;;;;10.60;9.90;;;19.30;99.90;;;;;;6035299;23;20471;-86
2022/06/04 06:02:16;;;;;;;10.23;9.53;;;19.30;99.90;;;;;;6034959;23;20476;-87
2022/06/04 06:04:43;;;;;;;10.27;9.47;;;19.30;99.90;;;;;;6035228;23;20436;-86
2022/06/04 06:07:10;;;;;;;11.67;10.87;;;19.30;99.90;;;;;;6035271;23;20428;-86
2022/06/04 06:09:37;;;;;;;11.90;11.00;;;19.20;99.90;;;;;;6035232;23;20444;-87
2022/06/04 06:12:08;;;;;;;11.67;10.87;;;19.10;99.90;;;;;;6034865;23;20886;-87
2022/06/04 06:14:35;;;;;;;12.43;11.53;;;19.10;99.90;;;;;;6034993;23;20936;-87
2022/06/04 06:17:03;;;;;;;13.30;12.10;;;18.80;99.90;;;;;;6034641;23;20467;-86
2022/06/04 06:19:30;;;;;;;14.50;13.40;;;18.50;99.90;;;;;;6035615;23;20436;-88
2022/06/04 06:21:57;;;;;;;15.90;14.70;;;18.30;99.90;;;;;;6034997;23;20812;-90
2022/06/04 06:24:23;;;;;;;15.87;14.57;;;18.00;99.90;;;;;;6035316;23;20531;-88
2022/06/04 06:26:53;;;;;;;17.50;16.10;;;17.80;99.90;;;;;;6034974;23;20502;-89
2022/06/04 06:29:24;;;;;;;20.03;17.90;;;17.60;99.90;;;;;;6035090;23;21009;-90
2022/06/04 06:31:51;;;;;;;22.08;20.30;;;17.50;99.90;;;;;;6033307;23;20859;-87
2022/06/04 06:34:18;;;;;;;21.27;19.27;;;17.40;99.90;;;;;;6035351;23;20256;-85
2022/06/04 06:36:45;;;;;;;19.80;18.20;;;17.30;99.90;;;;;;6033981;23;20924;-85
2022/06/04 06:39:12;;;;;;;23.70;21.70;;;17.30;99.90;;;;;;6033440;23;20484;-84
2022/06/04 06:41:40;;;;;;;26.70;24.50;;;17.20;99.90;;;;;;6034493;23;20994;-84
2022/06/04 06:44:07;;;;;;;26.93;24.83;;;17.20;99.90;;;;;;6034335;23;20986;-83
2022/06/04 06:46:37;;;;;;;27.30;24.80;;;17.20;99.90;;;;;;6034611;23;20481;-83
2022/06/04 06:49:07;;;;;;;23.03;21.13;;;17.20;99.90;;;;;;6034364;23;20468;-84
2022/06/04 06:51:37;;;;;;;24.33;22.50;;;17.20;99.90;;;;;;6034581;23;20545;-84
2022/06/04 06:54:04;;;;;;;24.53;22.53;;;17.30;99.90;;;;;;6034617;23;21046;-85
2022/06/04 06:56:33;;;;;;;24.70;22.87;;;17.40;99.90;;;;;;6034255;23;20864;-85
2022/06/04 06:59:01;;;;;;;26.73;24.50;;;17.60;99.90;;;;;;6034261;23;20525;-85
2022/06/04 07:01:29;;;;;;;27.00;24.67;;;17.80;99.90;;;;;;6034628;23;20479;-85
2022/06/04 07:03:58;;;;;;;28.30;25.93;;;18.00;99.90;;;;;;6034438;23;20950;-85
2022/06/04 07:06:30;;;;;;;24.27;22.30;;;18.10;99.90;;;;;;6034433;23;20436;-85
2022/06/04 07:08:57;;;;;;;25.47;23.47;;;18.20;99.90;;;;;;6034862;23;20440;-85
2022/06/04 07:11:25;;;;;;;26.63;24.50;;;18.30;99.90;;;;;;6034242;23;20474;-86
2022/06/04 07:13:52;;;;;;;24.30;22.50;;;18.30;99.90;;;;;;6034765;23;20539;-85
2022/06/04 07:16:19;;;;;;;26.60;24.33;;;18.20;99.90;;;;;;6034620;23;20472;-85
2022/06/04 07:18:47;;;;;;;25.37;23.17;;;18.20;99.90;;;;;;6034421;23;20804;-85
2022/06/04 07:21:16;;;;;;;26.47;24.27;;;18.30;99.90;;;;;;6034316;23;20539;-85
2022/06/04 07:23:43;;;;;;;27.53;25.30;;;18.30;99.90;;;;;;6034085;23;20535;-85
2022/06/04 07:26:12;;;;;;;24.77;22.97;;;18.40;99.90;;;;;;6034279;23;20466;-86
2022/06/04 07:28:39;;;;;;;24.30;22.47;;;18.40;99.90;;;;;;6034740;23;20450;-86
2022/06/04 07:31:07;;;;;;;26.10;24.20;;;18.50;99.90;;;;;;6034854;23;20872;-86
2022/06/04 07:33:34;;;;;;;22.77;21.00;;;18.70;99.90;;;;;;6034432;23;20522;-86
2022/06/04 07:36:02;;;;;;;21.60;20.00;;;19.10;99.90;;;;;;6034966;23;20432;-86
2022/06/04 07:38:30;;;;;;;19.60;18.20;;;19.70;99.90;;;;;;6034981;23;20483;-86
2022/06/04 07:40:57;;;;;;;19.40;18.00;;;20.10;99.90;;;;;;6037160;23;20998;-86
2022/06/04 07:43:25;;;;;;;18.50;17.20;;;20.50;99.90;;;;;;6038738;23;20508;-86
2022/06/04 07:45:52;;;;;;;18.27;17.07;;;20.80;99.90;;;;;;6037088;23;20446;-87
2022/06/04 07:48:19;;;;;;;18.00;16.80;;;20.90;99.90;;;;;;6036710;23;20479;-87
2022/06/04 07:50:46;;;;;;;17.30;16.10;;;21.10;99.90;;;;;;6036844;23;20452;-87
2022/06/04 07:53:12;;;;;;;16.80;15.50;;;21.20;99.90;;;;;;6037224;23;21002;-87
2022/06/04 07:55:42;;;;;;;15.00;14.10;;;21.40;99.90;;;;;;6036831;23;20437;-87
2022/06/04 07:58:10;;;;;;;17.60;16.40;;;21.60;99.90;;;;;;6037449;23;20440;-87
2022/06/04 08:00:38;;;;;;;15.10;14.00;;;21.90;99.90;;;;;;6035948;23;20491;-87
2022/06/04 08:03:06;;;;;;;14.03;13.13;;;22.20;99.90;;;;;;6034592;23;20848;-87
2022/06/04 08:05:33;;;;;;;14.07;13.17;;;22.60;99.90;;;;;;6033991;23;20471;-87
2022/06/04 08:08:00;;;;;;;15.97;14.83;;;22.90;99.90;;;;;;6034675;23;20436;-87
2022/06/04 08:10:27;;;;;;;12.93;12.03;;;23.10;99.90;;;;;;6034300;23;20923;-87
2022/06/04 08:12:56;;;;;;;13.50;12.50;;;23.20;99.90;;;;;;6034191;23;20507;-87
2022/06/04 08:15:23;;;;;;;13.60;12.70;;;23.50;99.90;;;;;;6034033;23;20440;-88
2022/06/04 08:17:50;;;;;;;14.67;13.57;;;23.60;99.90;;;;;;6033839;23;20785;-88
2022/06/04 08:20:19;;;;;;;14.53;13.60;;;24.30;99.90;;;;;;6034445;23;20443;-88
2022/06/04 08:22:46;;;;;;;13.37;12.47;;;25.00;99.90;;;;;;6034434;23;20524;-88
2022/06/04 08:25:14;;;;;;;13.50;12.50;;;25.40;99.90;;;;;;6034093;23;20498;-87
2022/06/04 08:27:41;;;;;;;13.10;12.20;;;25.70;99.90;;;;;;6034408;23;20447;-88
2022/06/04 08:30:10;;;;;;;11.90;11.10;;;25.40;99.90;;;;;;6034276;23;20526;-88
2022/06/04 08:32:37;;;;;;;12.20;11.40;;;25.40;99.90;;;;;;6034053;23;20506;-88
2022/06/04 08:35:05;;;;;;;13.87;12.97;;;25.80;99.90;;;;;;6035318;23;20479;-88
2022/06/04 08:37:32;;;;;;;12.27;11.40;;;25.80;99.90;;;;;;6035849;23;20523;-88
2022/06/04 08:40:00;;;;;;;13.30;12.50;;;25.60;99.90;;;;;;6035554;23;20523;-89
2022/06/04 08:42:40;;;;;;;12.67;11.73;;;25.50;99.90;;;;;;6035576;23;20455;-89
2022/06/04 08:45:12;;;;;;;11.50;10.80;;;26.00;99.90;;;;;;6041448;23;20498;-89
2022/06/04 08:47:44;;;;;;;11.97;11.17;;;26.50;99.90;;;;;;6036067;23;20499;-90
2022/06/04 08:50:19;;;;;;;12.37;11.57;;;26.90;99.90;;;;;;6035612;23;20720;-90
2022/06/04 08:52:48;;;;;;;10.97;10.23;;;27.30;99.90;;;;;;6035692;23;20471;-90
2022/06/04 08:58:25;;;;;;;11.23;10.40;;;28.60;99.90;;;;;;6034752;23;20483;-90
2022/06/04 09:00:57;;;;;;;11.80;11.03;;;29.00;99.90;;;;;;6035442;23;20563;-90
2022/06/04 09:03:31;;;;;;;10.30;9.63;;;29.30;99.90;;;;;;6035485;23;20531;-91
2022/06/04 09:06:22;;;;;;;10.50;9.80;;;29.80;99.90;;;;;;6034901;23;20471;-91
2022/06/04 09:08:54;;;;;;;8.67;8.17;;;30.30;99.90;;;;;;6035255;23;20840;-91
2022/06/04 09:11:26;;;;;;;10.70;10.00;;;30.60;99.90;;;;;;6035801;23;20464;-92
2022/06/04 09:14:25;;;;;;;9.20;8.60;;;30.50;99.90;;;;;;6035185;23;20951;-92
2022/06/04 09:16:57;;;;;;;9.60;8.83;;;30.20;99.90;;;;;;6024298;23;20440;-91
2022/06/04 09:19:30;;;;;;;9.70;9.00;;;29.70;99.90;;;;;;6035834;23;20440;-92
2022/06/04 09:21:58;;;;;;;9.80;9.13;;;29.10;99.90;;;;;;6035602;23;20463;-92
2022/06/04 09:24:26;;;;;;;10.77;10.07;;;28.50;99.90;;;;;;6035577;23;20519;-92
2022/06/04 09:27:00;;;;;;;12.07;11.20;;;28.00;99.90;;;;;;6035746;23;20491;-92
2022/06/04 09:29:55;;;;;;;11.30;10.50;;;27.80;99.90;;;;;;6035337;23;21043;-92
2022/06/04 09:32:44;;;;;;;12.97;11.97;;;27.50;99.90;;;;;;6025946;23;20491;-92
2022/06/04 09:35:14;;;;;;;10.33;9.63;;;27.10;99.90;;;;;;6036345;23;20464;-91
2022/06/04 09:37:46;;;;;;;10.93;10.23;;;27.30;99.90;;;;;;6041062;23;20532;-93
2022/06/04 09:40:20;;;;;;;11.50;10.67;;;27.80;99.90;;;;;;6057637;23;20471;-92
2022/06/04 09:42:46;;;;;;;10.93;10.23;;;28.00;99.90;;;;;;6061397;23;20448;-92
2022/06/04 09:45:22;;;;;;;10.43;9.60;;;28.20;99.90;;;;;;6049281;23;20456;-93
2022/06/04 09:47:54;;;;;;;10.97;10.20;;;28.60;99.90;;;;;;6036942;23;20436;-93
2022/06/04 09:50:25;;;;;;;11.97;11.27;;;28.80;99.90;;;;;;6036010;23;20484;-92
2022/06/04 09:53:02;;;;;;;13.73;12.83;;;28.60;99.90;;;;;;6035615;23;20478;-92
2022/06/04 09:55:32;;;;;;;17.43;16.33;;;28.10;99.90;;;;;;6035671;23;20495;-93
2022/06/04 09:58:01;;;;;;;16.37;15.17;;;27.60;99.90;;;;;;6034933;23;20470;-91
2022/06/04 10:00:30;;;;;;;17.00;15.80;;;26.90;99.90;;;;;;6035900;23;20469;-92
2022/06/04 10:03:00;;;;;;;15.53;14.50;;;26.30;99.90;;;;;;6035383;23;20443;-91
2022/06/04 10:05:30;;;;;;;17.93;16.83;;;26.00;99.90;;;;;;6035866;23;20523;-91
2022/06/04 10:07:57;;;;;;;19.90;18.50;;;25.70;99.90;;;;;;6035355;23;20514;-92
2022/06/04 10:10:29;;;;;;;16.77;15.50;;;25.30;99.90;;;;;;6035294;23;20491;-93
2022/06/04 10:15:45;;;;;;;19.20;17.80;;;25.00;99.90;;;;;;6042626;23;20459;-93
2022/06/04 10:18:23;;;;;;;17.17;15.93;;;24.90;99.90;;;;;;6038116;23;20939;-93
2022/06/04 10:20:56;;;;;;;18.07;16.77;;;24.70;99.90;;;;;;6034971;23;20486;-92
2022/06/04 10:23:24;;;;;;;18.77;17.47;;;24.50;99.90;;;;;;6035709;23;20776;-92
2022/06/04 10:26:02;;;;;;;20.47;19.03;;;24.40;99.90;;;;;;6035168;23;20511;-93
2022/06/04 10:28:41;;;;;;;21.30;19.90;;;24.30;99.90;;;;;;6035476;23;20840;-93
2022/06/04 10:31:20;;;;;;;20.30;18.90;;;24.10;99.90;;;;;;6035241;23;20459;-92
2022/06/04 10:33:56;;;;;;;20.93;19.20;;;24.00;99.90;;;;;;6035425;23;20472;-90
2022/06/04 10:36:39;;;;;;;18.70;17.50;;;24.00;99.90;;;;;;6035984;23;20431;-90
2022/06/04 10:39:19;;;;;;;19.40;18.17;;;24.00;99.90;;;;;;6035388;23;20463;-90
2022/06/04 10:41:53;;;;;;;18.57;17.27;;;24.00;99.90;;;;;;6035801;23;20956;-90
2022/06/04 10:44:50;;;;;;;17.93;16.73;;;24.00;99.90;;;;;;6035483;23;20439;-90
2022/06/04 10:47:26;;;;;;;17.73;16.53;;;24.00;99.90;;;;;;6035002;23;20515;-89
2022/06/04 10:50:18;;;;;;;19.70;18.30;;;24.10;99.90;;;;;;6035111;23;20439;-90
2022/06/04 10:52:48;;;;;;;19.03;17.73;;;24.00;99.90;;;;;;6035144;23;20440;-90
2022/06/04 10:55:23;;;;;;;20.50;19.10;;;24.00;99.90;;;;;;6035316;23;20460;-90
2022/06/04 10:57:59;;;;;;;21.23;19.83;;;23.90;99.90;;;;;;6035082;23;20446;-90
2022/06/04 11:00:32;;;;;;;19.23;17.93;;;24.00;99.90;;;;;;6035275;23;20458;-90
2022/06/04 11:03:04;;;;;;;18.90;17.40;;;24.00;99.90;;;;;;6035674;23;20440;-90
2022/06/04 11:05:39;;;;;;;19.17;17.77;;;24.00;99.90;;;;;;6035137;23;20428;-89
2022/06/04 11:08:12;;;;;;;17.03;15.87;;;23.90;99.90;;;;;;6035051;23;20439;-90
2022/06/04 11:10:44;;;;;;;17.27;16.17;;;23.90;99.90;;;;;;6050264;23;20572;-77
2022/06/04 11:13:17;;;;;;;16.77;15.77;;;23.80;99.90;;;;;;6090940;23;20976;-77
2022/06/04 11:15:48;;;;;;;22.10;20.47;;;23.70;99.90;;;;;;6091333;23;21015;-77
2022/06/04 11:18:20;;;;;;;17.80;16.60;;;23.60;99.90;;;;;;6091782;23;20434;-77
2022/06/04 11:20:54;;;;;;;16.63;15.53;;;23.70;99.90;;;;;;6091812;23;20495;-77
2022/06/04 11:23:29;;;;;;;15.47;14.27;;;23.90;99.90;;;;;;6091638;23;20433;-77
2022/06/04 11:26:03;;;;;;;14.37;13.47;;;24.10;99.90;;;;;;6091829;23;20438;-77
2022/06/04 11:28:31;;;;;;;14.87;13.87;;;24.30;99.90;;;;;;6091904;23;20521;-77
2022/06/04 11:31:09;;;;;;;13.83;12.90;;;24.50;99.90;;;;;;6091627;23;20814;-77
2022/06/04 11:33:49;;;;;;;14.60;13.60;;;24.50;99.90;;;;;;6091439;23;20968;-77
2022/06/04 11:36:29;;;;;;;13.60;12.80;;;24.50;99.90;;;;;;6091735;23;20433;-77
2022/06/04 11:39:12;;;;;;;14.60;13.60;;;24.30;99.90;;;;;;6091855;23;20445;-77
2022/06/04 11:41:48;;;;;;;15.07;13.97;;;24.40;99.90;;;;;;6091793;23;20879;-77
2022/06/04 11:44:50;;;;;;;12.90;12.10;;;24.40;99.90;;;;;;6091630;23;20789;-77
2022/06/04 11:47:31;;;;;;;12.43;11.73;;;24.60;99.90;;;;;;6067214;23;20496;-77
2022/06/04 11:50:04;;;;;;;12.97;12.00;;;24.60;99.90;;;;;;6091605;23;20953;-77
2022/06/04 11:52:37;;;;;;;12.70;11.90;;;24.80;99.90;;;;;;6091646;23;20449;-77
2022/06/04 11:55:19;;;;;;;13.83;12.83;;;25.00;99.90;;;;;;6091683;23;20541;-77
2022/06/04 11:58:14;;;;;;;14.90;13.83;;;25.10;99.90;;;;;;6091461;23;21004;-77
2022/06/04 12:00:45;;;;;;;11.53;10.80;;;25.20;99.90;;;;;;6091456;23;20961;-77
2022/06/04 12:03:18;;;;;;;11.37;10.67;;;25.50;99.90;;;;;;6091817;23;20481;-77
2022/06/04 12:05:52;;;;;;;12.60;11.90;;;25.80;99.90;;;;;;6091473;23;20429;-77
2022/06/04 12:08:22;;;;;;;13.77;12.80;;;26.30;99.90;;;;;;6091212;23;20465;-77
2022/06/04 12:11:17;;;;;;;12.50;11.70;;;26.70;99.90;;;;;;6091460;23;20462;-77
2022/06/04 12:13:58;;;;;;;10.50;9.80;;;27.40;99.90;;;;;;6086280;23;20470;-77
2022/06/04 12:16:30;;;;;;;10.03;9.43;;;28.20;99.90;;;;;;6091620;23;20436;-77
2022/06/04 12:19:00;;;;;;;10.43;9.73;;;29.00;99.90;;;;;;6091911;23;20469;-77
2022/06/04 12:24:38;;;;;;;11.87;11.07;;;29.70;99.90;;;;;;6091443;23;20443;-77
2022/06/04 12:27:17;;;;;;;10.50;9.80;;;30.00;99.90;;;;;;6091322;23;20433;-77
2022/06/04 12:29:47;;;;;;;9.30;8.70;;;30.20;99.90;;;;;;6091297;23;20458;-77
2022/06/04 12:32:28;;;;;;;9.80;9.20;;;30.80;99.90;;;;;;6091047;23;20484;-77
2022/06/04 12:35:05;;;;;;;11.10;10.40;;;31.10;99.90;;;;;;6090837;23;20512;-77
2022/06/04 12:37:36;;;;;;;11.90;11.10;;;30.90;99.90;;;;;;6091272;23;20426;-77
2022/06/04 12:40:27;;;;;;;12.07;11.30;;;30.60;99.90;;;;;;6091339;23;20430;-77
2022/06/04 12:42:59;;;;;;;9.37;8.77;;;30.30;99.90;;;;;;6091457;23;20637;-77
2022/06/04 12:45:36;;;;;;;11.27;10.47;;;30.20;99.90;;;;;;6091026;23;20520;-77
2022/06/04 12:48:22;;;;;;;10.07;9.30;;;29.80;99.90;;;;;;6090867;23;20536;-76
2022/06/04 12:50:53;;;;;;;8.67;8.07;;;29.70;99.90;;;;;;6091311;23;20454;-77
2022/06/04 12:53:23;;;;;;;9.00;8.20;;;30.50;99.90;;;;;;6090940;23;20861;-77
2022/06/04 12:55:55;;;;;;;6.87;6.40;;;31.10;99.90;;;;;;6091081;23;20470;-77
2022/06/04 12:58:32;;;;;;;6.03;5.70;;;31.60;99.90;;;;;;6091175;23;20466;-77
2022/06/04 13:01:01;;;;;;;7.23;6.70;;;32.50;99.90;;;;;;6090666;23;20450;-77
2022/06/04 13:03:32;;;;;;;7.20;6.60;;;33.00;99.10;;;;;;6090820;23;20446;-77
2022/06/04 13:06:23;;;;;;;6.73;6.33;;;33.60;97.40;;;;;;6090746;23;20453;-77